sensor_id;sensor_type;location;lat;lon;timestamp;P1;durP1;ratioP1;P2;durP2;ratioP2
3567;SDS011;1798;48.486;9.232;2023-09-12T00:00:05;24.70;;;10.13;;
3567;SDS011;1798;48.486;9.232;2023-09-12T00:02:32;32.77;;;10.43;;
3567;SDS011;1798;48.486;9.232;2023-09-12T00:04:59;26.30;;;9.80;;
3567;SDS011;1798;48.486;9.232;2023-09-12T00:07:26;24.60;;;8.87;;
3567;SDS011;1798;48.486;9.232;2023-09-12T00:09:53;21.20;;;10.43;;
3567;SDS011;1798;48.486;9.232;2023-09-12T00:12:21;33.37;;;9.60;;
3567;SDS011;1798;48.486;9.232;2023-09-12T00:14:50;19.90;;;9.23;;
3567;SDS011;1798;48.486;9.232;2023-09-12T00:17:17;24.63;;;9.23;;
3567;SDS011;1798;48.486;9.232;2023-09-12T00:19:44;24.20;;;9.40;;
3567;SDS011;1798;48.486;9.232;2023-09-12T00:22:10;33.77;;;9.07;;
3567;SDS011;1798;48.486;9.232;2023-09-12T00:24:37;28.10;;;10.20;;
3567;SDS011;1798;48.486;9.232;2023-09-12T00:27:04;28.30;;;10.57;;
3567;SDS011;1798;48.486;9.232;2023-09-12T00:29:31;38.17;;;10.23;;
3567;SDS011;1798;48.486;9.232;2023-09-12T00:31:59;15.80;;;9.23;;
3567;SDS011;1798;48.486;9.232;2023-09-12T00:34:26;30.40;;;9.50;;
3567;SDS011;1798;48.486;9.232;2023-09-12T00:36:53;35.70;;;9.10;;
3567;SDS011;1798;48.486;9.232;2023-09-12T00:39:19;24.50;;;10.20;;
3567;SDS011;1798;48.486;9.232;2023-09-12T00:41:46;28.40;;;9.10;;
3567;SDS011;1798;48.486;9.232;2023-09-12T00:44:13;23.27;;;9.30;;
3567;SDS011;1798;48.486;9.232;2023-09-12T00:46:39;18.27;;;9.20;;
3567;SDS011;1798;48.486;9.232;2023-09-12T00:49:08;25.60;;;9.77;;
3567;SDS011;1798;48.486;9.232;2023-09-12T00:51:35;33.03;;;9.47;;
3567;SDS011;1798;48.486;9.232;2023-09-12T00:54:03;24.87;;;9.67;;
3567;SDS011;1798;48.486;9.232;2023-09-12T00:56:29;22.20;;;10.60;;
3567;SDS011;1798;48.486;9.232;2023-09-12T00:58:56;21.33;;;9.80;;
3567;SDS011;1798;48.486;9.232;2023-09-12T01:01:23;30.47;;;9.73;;
3567;SDS011;1798;48.486;9.232;2023-09-12T01:03:50;30.13;;;11.53;;
3567;SDS011;1798;48.486;9.232;2023-09-12T01:06:18;17.07;;;8.90;;
3567;SDS011;1798;48.486;9.232;2023-09-12T01:08:45;25.17;;;11.40;;
3567;SDS011;1798;48.486;9.232;2023-09-12T01:11:11;22.23;;;9.97;;
3567;SDS011;1798;48.486;9.232;2023-09-12T01:13:39;22.23;;;9.97;;
3567;SDS011;1798;48.486;9.232;2023-09-12T01:16:05;19.93;;;10.20;;
3567;SDS011;1798;48.486;9.232;2023-09-12T01:18:32;21.93;;;9.97;;
3567;SDS011;1798;48.486;9.232;2023-09-12T01:21:05;29.07;;;11.50;;
3567;SDS011;1798;48.486;9.232;2023-09-12T01:23:46;50.50;;;11.80;;
3567;SDS011;1798;48.486;9.232;2023-09-12T01:26:27;21.03;;;9.40;;
3567;SDS011;1798;48.486;9.232;2023-09-12T01:28:57;32.93;;;11.63;;
3567;SDS011;1798;48.486;9.232;2023-09-12T01:31:24;36.37;;;12.50;;
3567;SDS011;1798;48.486;9.232;2023-09-12T01:33:54;48.10;;;10.37;;
3567;SDS011;1798;48.486;9.232;2023-09-12T01:36:21;24.97;;;10.27;;
3567;SDS011;1798;48.486;9.232;2023-09-12T01:38:48;32.47;;;10.83;;
3567;SDS011;1798;48.486;9.232;2023-09-12T01:41:15;32.23;;;10.10;;
3567;SDS011;1798;48.486;9.232;2023-09-12T01:43:41;22.70;;;10.17;;
3567;SDS011;1798;48.486;9.232;2023-09-12T01:46:10;22.67;;;10.40;;
3567;SDS011;1798;48.486;9.232;2023-09-12T01:48:37;18.90;;;9.80;;
3567;SDS011;1798;48.486;9.232;2023-09-12T01:51:05;19.23;;;10.13;;
3567;SDS011;1798;48.486;9.232;2023-09-12T01:53:32;36.23;;;10.50;;
3567;SDS011;1798;48.486;9.232;2023-09-12T01:56:00;30.03;;;10.20;;
3567;SDS011;1798;48.486;9.232;2023-09-12T01:58:26;36.77;;;10.37;;
3567;SDS011;1798;48.486;9.232;2023-09-12T02:00:53;36.53;;;10.13;;
3567;SDS011;1798;48.486;9.232;2023-09-12T02:03:21;26.73;;;9.50;;
3567;SDS011;1798;48.486;9.232;2023-09-12T02:05:48;36.43;;;9.60;;
3567;SDS011;1798;48.486;9.232;2023-09-12T02:08:14;26.00;;;10.43;;
3567;SDS011;1798;48.486;9.232;2023-09-12T02:10:41;21.80;;;10.83;;
3567;SDS011;1798;48.486;9.232;2023-09-12T02:13:08;28.47;;;9.63;;
3567;SDS011;1798;48.486;9.232;2023-09-12T02:15:35;25.60;;;9.80;;
3567;SDS011;1798;48.486;9.232;2023-09-12T02:18:01;30.37;;;10.80;;
3567;SDS011;1798;48.486;9.232;2023-09-12T02:20:30;19.63;;;10.87;;
3567;SDS011;1798;48.486;9.232;2023-09-12T02:22:57;19.93;;;9.40;;
3567;SDS011;1798;48.486;9.232;2023-09-12T02:25:24;22.10;;;10.63;;
3567;SDS011;1798;48.486;9.232;2023-09-12T02:27:51;40.53;;;11.70;;
3567;SDS011;1798;48.486;9.232;2023-09-12T02:30:17;40.33;;;10.20;;
3567;SDS011;1798;48.486;9.232;2023-09-12T02:32:44;24.90;;;9.00;;
3567;SDS011;1798;48.486;9.232;2023-09-12T02:35:11;28.93;;;11.30;;
3567;SDS011;1798;48.486;9.232;2023-09-12T02:37:39;17.57;;;8.70;;
3567;SDS011;1798;48.486;9.232;2023-09-12T02:40:06;22.03;;;10.73;;
3567;SDS011;1798;48.486;9.232;2023-09-12T02:42:36;21.37;;;11.07;;
3567;SDS011;1798;48.486;9.232;2023-09-12T02:45:03;21.20;;;9.33;;
3567;SDS011;1798;48.486;9.232;2023-09-12T02:47:30;31.37;;;9.50;;
3567;SDS011;1798;48.486;9.232;2023-09-12T02:49:57;32.87;;;9.30;;
3567;SDS011;1798;48.486;9.232;2023-09-12T02:52:23;21.03;;;8.90;;
3567;SDS011;1798;48.486;9.232;2023-09-12T02:54:52;19.83;;;9.10;;
3567;SDS011;1798;48.486;9.232;2023-09-12T02:57:18;22.30;;;9.07;;
3567;SDS011;1798;48.486;9.232;2023-09-12T02:59:45;23.23;;;8.90;;
3567;SDS011;1798;48.486;9.232;2023-09-12T03:02:12;18.10;;;9.33;;
3567;SDS011;1798;48.486;9.232;2023-09-12T03:04:39;30.63;;;8.90;;
3567;SDS011;1798;48.486;9.232;2023-09-12T03:07:05;24.00;;;10.50;;
3567;SDS011;1798;48.486;9.232;2023-09-12T03:09:32;23.13;;;9.17;;
3567;SDS011;1798;48.486;9.232;2023-09-12T03:12:01;18.57;;;9.30;;
3567;SDS011;1798;48.486;9.232;2023-09-12T03:14:28;20.10;;;10.47;;
3567;SDS011;1798;48.486;9.232;2023-09-12T03:16:55;16.70;;;9.97;;
3567;SDS011;1798;48.486;9.232;2023-09-12T03:19:22;28.97;;;10.30;;
3567;SDS011;1798;48.486;9.232;2023-09-12T03:21:49;21.33;;;9.87;;
3567;SDS011;1798;48.486;9.232;2023-09-12T03:24:15;22.10;;;9.87;;
3567;SDS011;1798;48.486;9.232;2023-09-12T03:26:43;24.10;;;9.90;;
3567;SDS011;1798;48.486;9.232;2023-09-12T03:29:11;25.00;;;10.33;;
3567;SDS011;1798;48.486;9.232;2023-09-12T03:31:38;25.17;;;10.70;;
3567;SDS011;1798;48.486;9.232;2023-09-12T03:34:05;34.03;;;11.20;;
3567;SDS011;1798;48.486;9.232;2023-09-12T03:36:32;19.87;;;10.23;;
3567;SDS011;1798;48.486;9.232;2023-09-12T03:38:58;18.63;;;8.57;;
3567;SDS011;1798;48.486;9.232;2023-09-12T03:41:25;18.33;;;9.30;;
3567;SDS011;1798;48.486;9.232;2023-09-12T03:43:52;18.63;;;9.37;;
3567;SDS011;1798;48.486;9.232;2023-09-12T03:46:21;22.33;;;11.33;;
3567;SDS011;1798;48.486;9.232;2023-09-12T03:48:48;26.27;;;10.63;;
3567;SDS011;1798;48.486;9.232;2023-09-12T03:51:15;23.60;;;10.53;;
3567;SDS011;1798;48.486;9.232;2023-09-12T03:53:42;27.30;;;11.67;;
3567;SDS011;1798;48.486;9.232;2023-09-12T03:56:08;26.83;;;10.67;;
3567;SDS011;1798;48.486;9.232;2023-09-12T03:58:37;19.97;;;10.33;;
3567;SDS011;1798;48.486;9.232;2023-09-12T04:01:04;24.63;;;9.70;;
3567;SDS011;1798;48.486;9.232;2023-09-12T04:03:32;22.60;;;10.77;;
3567;SDS011;1798;48.486;9.232;2023-09-12T04:05:59;21.80;;;9.37;;
3567;SDS011;1798;48.486;9.232;2023-09-12T04:08:26;19.90;;;8.63;;
3567;SDS011;1798;48.486;9.232;2023-09-12T04:10:52;25.03;;;10.23;;
3567;SDS011;1798;48.486;9.232;2023-09-12T04:13:19;14.30;;;9.13;;
3567;SDS011;1798;48.486;9.232;2023-09-12T04:15:46;22.07;;;9.83;;
3567;SDS011;1798;48.486;9.232;2023-09-12T04:18:13;27.80;;;8.87;;
3567;SDS011;1798;48.486;9.232;2023-09-12T04:20:41;44.27;;;10.37;;
3567;SDS011;1798;48.486;9.232;2023-09-12T04:23:07;25.73;;;9.73;;
3567;SDS011;1798;48.486;9.232;2023-09-12T04:25:34;22.03;;;10.30;;
3567;SDS011;1798;48.486;9.232;2023-09-12T04:28:01;17.63;;;10.80;;
3567;SDS011;1798;48.486;9.232;2023-09-12T04:30:28;24.87;;;9.63;;
3567;SDS011;1798;48.486;9.232;2023-09-12T04:32:55;34.23;;;12.03;;
3567;SDS011;1798;48.486;9.232;2023-09-12T04:35:21;20.17;;;10.50;;
3567;SDS011;1798;48.486;9.232;2023-09-12T04:37:51;39.37;;;10.83;;
3567;SDS011;1798;48.486;9.232;2023-09-12T04:40:18;27.03;;;10.70;;
3567;SDS011;1798;48.486;9.232;2023-09-12T04:42:45;34.47;;;11.50;;
3567;SDS011;1798;48.486;9.232;2023-09-12T04:45:11;17.70;;;10.27;;
3567;SDS011;1798;48.486;9.232;2023-09-12T04:47:38;18.67;;;10.90;;
3567;SDS011;1798;48.486;9.232;2023-09-12T04:50:05;31.17;;;11.77;;
3567;SDS011;1798;48.486;9.232;2023-09-12T04:52:32;22.23;;;9.80;;
3567;SDS011;1798;48.486;9.232;2023-09-12T04:55:00;21.30;;;10.10;;
3567;SDS011;1798;48.486;9.232;2023-09-12T04:57:29;21.03;;;9.67;;
3567;SDS011;1798;48.486;9.232;2023-09-12T04:59:58;21.50;;;9.90;;
3567;SDS011;1798;48.486;9.232;2023-09-12T05:02:24;26.03;;;9.20;;
3567;SDS011;1798;48.486;9.232;2023-09-12T05:04:51;26.60;;;10.00;;
3567;SDS011;1798;48.486;9.232;2023-09-12T05:07:18;26.13;;;9.90;;
3567;SDS011;1798;48.486;9.232;2023-09-12T05:09:45;20.43;;;11.10;;
3567;SDS011;1798;48.486;9.232;2023-09-12T05:12:13;26.13;;;10.47;;
3567;SDS011;1798;48.486;9.232;2023-09-12T05:14:40;22.80;;;10.43;;
3567;SDS011;1798;48.486;9.232;2023-09-12T05:17:06;14.10;;;10.47;;
3567;SDS011;1798;48.486;9.232;2023-09-12T05:19:33;16.63;;;10.00;;
3567;SDS011;1798;48.486;9.232;2023-09-12T05:22:00;30.73;;;10.63;;
3567;SDS011;1798;48.486;9.232;2023-09-12T05:24:26;38.37;;;11.90;;
3567;SDS011;1798;48.486;9.232;2023-09-12T05:26:53;21.83;;;10.63;;
3567;SDS011;1798;48.486;9.232;2023-09-12T05:29:21;23.60;;;12.07;;
3567;SDS011;1798;48.486;9.232;2023-09-12T05:31:48;27.47;;;11.87;;
3567;SDS011;1798;48.486;9.232;2023-09-12T05:34:15;23.73;;;10.70;;
3567;SDS011;1798;48.486;9.232;2023-09-12T05:36:41;23.70;;;10.60;;
3567;SDS011;1798;48.486;9.232;2023-09-12T05:39:08;26.17;;;11.97;;
3567;SDS011;1798;48.486;9.232;2023-09-12T05:41:35;19.77;;;9.90;;
3567;SDS011;1798;48.486;9.232;2023-09-12T05:44:01;32.23;;;11.50;;
3567;SDS011;1798;48.486;9.232;2023-09-12T05:46:30;27.70;;;11.77;;
3567;SDS011;1798;48.486;9.232;2023-09-12T05:48:57;22.40;;;12.00;;
3567;SDS011;1798;48.486;9.232;2023-09-12T05:51:23;35.40;;;10.70;;
3567;SDS011;1798;48.486;9.232;2023-09-12T05:53:50;23.37;;;11.77;;
3567;SDS011;1798;48.486;9.232;2023-09-12T05:56:17;37.53;;;15.23;;
3567;SDS011;1798;48.486;9.232;2023-09-12T05:58:46;39.97;;;15.80;;
3567;SDS011;1798;48.486;9.232;2023-09-12T06:01:15;39.57;;;15.20;;
3567;SDS011;1798;48.486;9.232;2023-09-12T06:03:43;34.33;;;14.40;;
3567;SDS011;1798;48.486;9.232;2023-09-12T06:06:10;37.07;;;13.50;;
3567;SDS011;1798;48.486;9.232;2023-09-12T06:08:37;23.27;;;13.97;;
3567;SDS011;1798;48.486;9.232;2023-09-12T06:11:04;27.67;;;14.97;;
3567;SDS011;1798;48.486;9.232;2023-09-12T06:13:30;26.17;;;14.07;;
3567;SDS011;1798;48.486;9.232;2023-09-12T06:15:58;34.17;;;14.80;;
3567;SDS011;1798;48.486;9.232;2023-09-12T06:18:24;37.60;;;15.90;;
3567;SDS011;1798;48.486;9.232;2023-09-12T06:20:55;25.10;;;14.60;;
3567;SDS011;1798;48.486;9.232;2023-09-12T06:23:21;41.00;;;15.03;;
3567;SDS011;1798;48.486;9.232;2023-09-12T06:25:48;43.80;;;14.10;;
3567;SDS011;1798;48.486;9.232;2023-09-12T06:28:24;36.53;;;15.23;;
3567;SDS011;1798;48.486;9.232;2023-09-12T06:30:51;50.60;;;16.10;;
3567;SDS011;1798;48.486;9.232;2023-09-12T06:33:18;35.50;;;13.17;;
3567;SDS011;1798;48.486;9.232;2023-09-12T06:35:47;27.77;;;15.03;;
3567;SDS011;1798;48.486;9.232;2023-09-12T06:38:15;25.00;;;13.50;;
3567;SDS011;1798;48.486;9.232;2023-09-12T06:40:42;25.00;;;13.27;;
3567;SDS011;1798;48.486;9.232;2023-09-12T06:43:09;31.37;;;14.30;;
3567;SDS011;1798;48.486;9.232;2023-09-12T06:45:36;25.37;;;12.93;;
3567;SDS011;1798;48.486;9.232;2023-09-12T06:48:04;24.60;;;12.87;;
3567;SDS011;1798;48.486;9.232;2023-09-12T06:50:31;36.23;;;14.27;;
3567;SDS011;1798;48.486;9.232;2023-09-12T06:52:58;25.00;;;13.30;;
3567;SDS011;1798;48.486;9.232;2023-09-12T06:55:27;26.97;;;13.40;;
3567;SDS011;1798;48.486;9.232;2023-09-12T06:57:54;21.93;;;12.90;;
3567;SDS011;1798;48.486;9.232;2023-09-12T07:00:20;29.10;;;12.43;;
3567;SDS011;1798;48.486;9.232;2023-09-12T07:02:47;23.37;;;12.80;;
3567;SDS011;1798;48.486;9.232;2023-09-12T07:05:14;34.80;;;16.07;;
3567;SDS011;1798;48.486;9.232;2023-09-12T07:07:41;47.07;;;13.80;;
3567;SDS011;1798;48.486;9.232;2023-09-12T07:10:07;38.07;;;15.77;;
3567;SDS011;1798;48.486;9.232;2023-09-12T07:12:36;37.57;;;14.77;;
3567;SDS011;1798;48.486;9.232;2023-09-12T07:15:03;22.27;;;13.87;;
3567;SDS011;1798;48.486;9.232;2023-09-12T07:17:30;27.77;;;12.33;;
3567;SDS011;1798;48.486;9.232;2023-09-12T07:19:57;23.50;;;12.70;;
3567;SDS011;1798;48.486;9.232;2023-09-12T07:22:25;28.90;;;12.90;;
3567;SDS011;1798;48.486;9.232;2023-09-12T07:24:52;22.60;;;12.67;;
3567;SDS011;1798;48.486;9.232;2023-09-12T07:27:19;39.17;;;14.03;;
3567;SDS011;1798;48.486;9.232;2023-09-12T07:29:47;21.17;;;13.07;;
3567;SDS011;1798;48.486;9.232;2023-09-12T07:32:14;36.03;;;14.80;;
3567;SDS011;1798;48.486;9.232;2023-09-12T07:34:41;25.63;;;11.97;;
3567;SDS011;1798;48.486;9.232;2023-09-12T07:37:13;30.47;;;12.70;;
3567;SDS011;1798;48.486;9.232;2023-09-12T07:39:40;26.20;;;13.87;;
3567;SDS011;1798;48.486;9.232;2023-09-12T07:42:07;32.97;;;13.93;;
3567;SDS011;1798;48.486;9.232;2023-09-12T07:44:34;26.50;;;13.50;;
3567;SDS011;1798;48.486;9.232;2023-09-12T07:47:03;45.03;;;14.67;;
3567;SDS011;1798;48.486;9.232;2023-09-12T07:49:30;27.37;;;12.20;;
3567;SDS011;1798;48.486;9.232;2023-09-12T07:51:57;20.57;;;12.13;;
3567;SDS011;1798;48.486;9.232;2023-09-12T07:54:24;28.77;;;15.40;;
3567;SDS011;1798;48.486;9.232;2023-09-12T07:56:51;23.20;;;12.93;;
3567;SDS011;1798;48.486;9.232;2023-09-12T07:59:18;19.83;;;13.00;;
3567;SDS011;1798;48.486;9.232;2023-09-12T08:01:44;19.87;;;11.47;;
3567;SDS011;1798;48.486;9.232;2023-09-12T08:04:13;28.73;;;13.70;;
3567;SDS011;1798;48.486;9.232;2023-09-12T08:06:40;29.87;;;14.43;;
3567;SDS011;1798;48.486;9.232;2023-09-12T08:09:08;27.23;;;13.43;;
3567;SDS011;1798;48.486;9.232;2023-09-12T08:11:35;30.43;;;14.07;;
3567;SDS011;1798;48.486;9.232;2023-09-12T08:14:02;19.00;;;11.20;;
3567;SDS011;1798;48.486;9.232;2023-09-12T08:16:29;32.70;;;13.13;;
3567;SDS011;1798;48.486;9.232;2023-09-12T08:18:57;24.27;;;12.10;;
3567;SDS011;1798;48.486;9.232;2023-09-12T08:21:25;35.97;;;16.13;;
3567;SDS011;1798;48.486;9.232;2023-09-12T08:23:52;29.73;;;15.27;;
3567;SDS011;1798;48.486;9.232;2023-09-12T08:26:19;40.37;;;14.40;;
3567;SDS011;1798;48.486;9.232;2023-09-12T08:28:45;28.43;;;11.97;;
3567;SDS011;1798;48.486;9.232;2023-09-12T08:31:12;21.70;;;12.60;;
3567;SDS011;1798;48.486;9.232;2023-09-12T08:33:39;22.33;;;12.83;;
3567;SDS011;1798;48.486;9.232;2023-09-12T08:36:06;26.43;;;13.67;;
3567;SDS011;1798;48.486;9.232;2023-09-12T08:38:34;27.43;;;14.20;;
3567;SDS011;1798;48.486;9.232;2023-09-12T08:41:01;22.03;;;12.60;;
3567;SDS011;1798;48.486;9.232;2023-09-12T08:43:28;32.13;;;12.70;;
3567;SDS011;1798;48.486;9.232;2023-09-12T08:45:55;23.03;;;11.60;;
3567;SDS011;1798;48.486;9.232;2023-09-12T08:48:22;32.47;;;14.43;;
3567;SDS011;1798;48.486;9.232;2023-09-12T08:50:50;21.53;;;11.57;;
3567;SDS011;1798;48.486;9.232;2023-09-12T08:53:18;30.80;;;15.03;;
3567;SDS011;1798;48.486;9.232;2023-09-12T08:55:49;44.03;;;14.10;;
3567;SDS011;1798;48.486;9.232;2023-09-12T08:58:17;34.77;;;13.10;;
3567;SDS011;1798;48.486;9.232;2023-09-12T09:00:44;53.83;;;16.73;;
3567;SDS011;1798;48.486;9.232;2023-09-12T09:03:11;21.63;;;13.80;;
3567;SDS011;1798;48.486;9.232;2023-09-12T09:05:38;20.83;;;11.63;;
3567;SDS011;1798;48.486;9.232;2023-09-12T09:08:06;19.63;;;12.60;;
3567;SDS011;1798;48.486;9.232;2023-09-12T09:10:34;25.70;;;14.30;;
3567;SDS011;1798;48.486;9.232;2023-09-12T09:13:03;34.83;;;13.80;;
3567;SDS011;1798;48.486;9.232;2023-09-12T09:15:31;20.87;;;14.53;;
3567;SDS011;1798;48.486;9.232;2023-09-12T09:17:58;31.37;;;13.33;;
3567;SDS011;1798;48.486;9.232;2023-09-12T09:20:31;21.30;;;12.80;;
3567;SDS011;1798;48.486;9.232;2023-09-12T09:23:00;27.40;;;14.10;;
3567;SDS011;1798;48.486;9.232;2023-09-12T09:25:30;29.53;;;13.93;;
3567;SDS011;1798;48.486;9.232;2023-09-12T09:27:57;33.67;;;14.27;;
3567;SDS011;1798;48.486;9.232;2023-09-12T09:30:41;25.03;;;12.80;;
3567;SDS011;1798;48.486;9.232;2023-09-12T09:33:10;21.60;;;12.03;;
3567;SDS011;1798;48.486;9.232;2023-09-12T09:35:37;23.83;;;12.20;;
3567;SDS011;1798;48.486;9.232;2023-09-12T09:38:05;16.97;;;10.93;;
3567;SDS011;1798;48.486;9.232;2023-09-12T09:40:33;18.23;;;11.80;;
3567;SDS011;1798;48.486;9.232;2023-09-12T09:43:01;32.30;;;12.53;;
3567;SDS011;1798;48.486;9.232;2023-09-12T09:45:29;17.90;;;11.40;;
3567;SDS011;1798;48.486;9.232;2023-09-12T09:47:58;19.10;;;10.47;;
3567;SDS011;1798;48.486;9.232;2023-09-12T09:50:25;24.67;;;12.67;;
3567;SDS011;1798;48.486;9.232;2023-09-12T09:52:53;20.87;;;11.50;;
3567;SDS011;1798;48.486;9.232;2023-09-12T09:55:22;16.07;;;11.00;;
3567;SDS011;1798;48.486;9.232;2023-09-12T09:57:49;30.50;;;11.93;;
3567;SDS011;1798;48.486;9.232;2023-09-12T10:00:18;17.30;;;11.70;;
3567;SDS011;1798;48.486;9.232;2023-09-12T10:02:46;17.07;;;11.67;;
3567;SDS011;1798;48.486;9.232;2023-09-12T10:05:17;22.67;;;11.43;;
3567;SDS011;1798;48.486;9.232;2023-09-12T10:07:45;21.47;;;13.00;;
3567;SDS011;1798;48.486;9.232;2023-09-12T10:10:13;16.57;;;11.80;;
3567;SDS011;1798;48.486;9.232;2023-09-12T10:12:41;17.10;;;11.70;;
3567;SDS011;1798;48.486;9.232;2023-09-12T10:15:11;14.97;;;11.50;;
3567;SDS011;1798;48.486;9.232;2023-09-12T10:17:40;23.50;;;12.23;;
3567;SDS011;1798;48.486;9.232;2023-09-12T10:20:11;23.97;;;13.97;;
3567;SDS011;1798;48.486;9.232;2023-09-12T10:22:45;20.40;;;12.77;;
3567;SDS011;1798;48.486;9.232;2023-09-12T10:25:14;23.77;;;14.00;;
3567;SDS011;1798;48.486;9.232;2023-09-12T10:27:42;20.77;;;12.23;;
3567;SDS011;1798;48.486;9.232;2023-09-12T10:30:09;20.67;;;10.77;;
3567;SDS011;1798;48.486;9.232;2023-09-12T10:32:36;15.40;;;11.47;;
3567;SDS011;1798;48.486;9.232;2023-09-12T10:35:03;27.37;;;13.60;;
3567;SDS011;1798;48.486;9.232;2023-09-12T10:37:32;28.43;;;12.60;;
3567;SDS011;1798;48.486;9.232;2023-09-12T10:40:03;21.63;;;12.83;;
3567;SDS011;1798;48.486;9.232;2023-09-12T10:42:32;31.47;;;14.27;;
3567;SDS011;1798;48.486;9.232;2023-09-12T10:44:59;32.53;;;12.10;;
3567;SDS011;1798;48.486;9.232;2023-09-12T10:47:28;29.00;;;12.77;;
3567;SDS011;1798;48.486;9.232;2023-09-12T10:49:55;33.73;;;14.83;;
3567;SDS011;1798;48.486;9.232;2023-09-12T10:52:25;19.60;;;13.33;;
3567;SDS011;1798;48.486;9.232;2023-09-12T10:54:52;21.07;;;11.80;;
3567;SDS011;1798;48.486;9.232;2023-09-12T10:57:21;18.17;;;11.60;;
3567;SDS011;1798;48.486;9.232;2023-09-12T11:02:36;28.03;;;12.53;;
3567;SDS011;1798;48.486;9.232;2023-09-12T11:05:04;23.53;;;13.80;;
3567;SDS011;1798;48.486;9.232;2023-09-12T11:07:33;23.43;;;13.70;;
3567;SDS011;1798;48.486;9.232;2023-09-12T11:10:17;25.17;;;13.93;;
3567;SDS011;1798;48.486;9.232;2023-09-12T11:12:48;21.23;;;14.70;;
3567;SDS011;1798;48.486;9.232;2023-09-12T11:15:16;34.03;;;15.33;;
3567;SDS011;1798;48.486;9.232;2023-09-12T11:17:43;22.73;;;13.70;;
3567;SDS011;1798;48.486;9.232;2023-09-12T11:20:11;33.23;;;12.63;;
3567;SDS011;1798;48.486;9.232;2023-09-12T11:22:40;25.67;;;13.77;;
3567;SDS011;1798;48.486;9.232;2023-09-12T11:25:18;25.87;;;15.50;;
3567;SDS011;1798;48.486;9.232;2023-09-12T11:30:32;25.70;;;12.97;;
3567;SDS011;1798;48.486;9.232;2023-09-12T11:33:02;22.00;;;16.00;;
3567;SDS011;1798;48.486;9.232;2023-09-12T11:35:30;24.10;;;14.80;;
3567;SDS011;1798;48.486;9.232;2023-09-12T11:38:03;33.23;;;14.87;;
3567;SDS011;1798;48.486;9.232;2023-09-12T11:40:41;32.93;;;14.07;;
3567;SDS011;1798;48.486;9.232;2023-09-12T11:43:19;21.40;;;14.73;;
3567;SDS011;1798;48.486;9.232;2023-09-12T11:45:47;17.33;;;12.43;;
3567;SDS011;1798;48.486;9.232;2023-09-12T11:48:14;22.33;;;15.00;;
3567;SDS011;1798;48.486;9.232;2023-09-12T11:50:41;21.40;;;13.93;;
3567;SDS011;1798;48.486;9.232;2023-09-12T11:53:09;22.67;;;14.43;;
3567;SDS011;1798;48.486;9.232;2023-09-12T11:55:37;19.20;;;14.70;;
3567;SDS011;1798;48.486;9.232;2023-09-12T11:58:09;21.57;;;14.40;;
3567;SDS011;1798;48.486;9.232;2023-09-12T12:00:38;22.20;;;16.83;;
3567;SDS011;1798;48.486;9.232;2023-09-12T12:03:09;24.77;;;13.90;;
3567;SDS011;1798;48.486;9.232;2023-09-12T12:05:36;18.17;;;12.90;;
3567;SDS011;1798;48.486;9.232;2023-09-12T12:08:03;29.87;;;14.67;;
3567;SDS011;1798;48.486;9.232;2023-09-12T12:10:31;17.33;;;12.30;;
3567;SDS011;1798;48.486;9.232;2023-09-12T12:12:58;22.50;;;14.07;;
3567;SDS011;1798;48.486;9.232;2023-09-12T12:15:27;23.67;;;12.97;;
3567;SDS011;1798;48.486;9.232;2023-09-12T12:17:56;19.00;;;15.30;;
3567;SDS011;1798;48.486;9.232;2023-09-12T12:20:23;19.10;;;14.77;;
3567;SDS011;1798;48.486;9.232;2023-09-12T12:22:50;41.47;;;14.10;;
3567;SDS011;1798;48.486;9.232;2023-09-12T12:25:17;20.50;;;13.20;;
3567;SDS011;1798;48.486;9.232;2023-09-12T12:27:44;26.70;;;13.43;;
3567;SDS011;1798;48.486;9.232;2023-09-12T12:30:12;21.20;;;13.67;;
3567;SDS011;1798;48.486;9.232;2023-09-12T12:32:39;27.53;;;15.03;;
3567;SDS011;1798;48.486;9.232;2023-09-12T12:35:08;20.20;;;13.30;;
3567;SDS011;1798;48.486;9.232;2023-09-12T12:37:35;21.77;;;12.90;;
3567;SDS011;1798;48.486;9.232;2023-09-12T12:40:03;18.37;;;12.40;;
3567;SDS011;1798;48.486;9.232;2023-09-12T12:42:34;23.07;;;13.97;;
3567;SDS011;1798;48.486;9.232;2023-09-12T12:45:07;45.67;;;14.23;;
3567;SDS011;1798;48.486;9.232;2023-09-12T12:47:37;19.97;;;13.73;;
3567;SDS011;1798;48.486;9.232;2023-09-12T12:50:09;19.47;;;13.93;;
3567;SDS011;1798;48.486;9.232;2023-09-12T12:52:37;42.97;;;15.60;;
3567;SDS011;1798;48.486;9.232;2023-09-12T12:55:04;18.97;;;14.37;;
3567;SDS011;1798;48.486;9.232;2023-09-12T12:57:32;21.00;;;14.43;;
3567;SDS011;1798;48.486;9.232;2023-09-12T13:00:02;18.80;;;13.60;;
3567;SDS011;1798;48.486;9.232;2023-09-12T13:02:30;23.80;;;14.60;;
3567;SDS011;1798;48.486;9.232;2023-09-12T13:04:57;22.20;;;14.20;;
3567;SDS011;1798;48.486;9.232;2023-09-12T13:07:26;21.13;;;14.10;;
3567;SDS011;1798;48.486;9.232;2023-09-12T13:09:53;20.93;;;15.10;;
3567;SDS011;1798;48.486;9.232;2023-09-12T13:12:20;30.40;;;16.67;;
3567;SDS011;1798;48.486;9.232;2023-09-12T13:14:47;28.43;;;14.53;;
3567;SDS011;1798;48.486;9.232;2023-09-12T13:17:14;28.17;;;14.40;;
3567;SDS011;1798;48.486;9.232;2023-09-12T13:19:41;23.60;;;14.70;;
3567;SDS011;1798;48.486;9.232;2023-09-12T13:22:08;23.27;;;15.17;;
3567;SDS011;1798;48.486;9.232;2023-09-12T13:24:36;21.70;;;13.43;;
3567;SDS011;1798;48.486;9.232;2023-09-12T13:27:03;29.80;;;15.47;;
3567;SDS011;1798;48.486;9.232;2023-09-12T13:29:30;24.60;;;15.43;;
3567;SDS011;1798;48.486;9.232;2023-09-12T13:31:56;27.73;;;14.83;;
3567;SDS011;1798;48.486;9.232;2023-09-12T13:34:23;22.83;;;14.70;;
3567;SDS011;1798;48.486;9.232;2023-09-12T13:36:50;21.27;;;13.93;;
3567;SDS011;1798;48.486;9.232;2023-09-12T13:39:16;26.50;;;13.20;;
3567;SDS011;1798;48.486;9.232;2023-09-12T13:41:45;18.13;;;12.33;;
3567;SDS011;1798;48.486;9.232;2023-09-12T13:44:11;27.60;;;13.50;;
3567;SDS011;1798;48.486;9.232;2023-09-12T13:46:39;22.73;;;13.90;;
3567;SDS011;1798;48.486;9.232;2023-09-12T13:49:09;22.00;;;13.70;;
3567;SDS011;1798;48.486;9.232;2023-09-12T13:51:35;19.23;;;13.30;;
3567;SDS011;1798;48.486;9.232;2023-09-12T13:54:03;27.37;;;14.50;;
3567;SDS011;1798;48.486;9.232;2023-09-12T13:56:31;22.73;;;13.87;;
3567;SDS011;1798;48.486;9.232;2023-09-12T13:59:02;22.57;;;14.77;;
3567;SDS011;1798;48.486;9.232;2023-09-12T14:01:30;20.03;;;14.50;;
3567;SDS011;1798;48.486;9.232;2023-09-12T14:03:57;22.43;;;12.93;;
3567;SDS011;1798;48.486;9.232;2023-09-12T14:06:23;24.67;;;13.10;;
3567;SDS011;1798;48.486;9.232;2023-09-12T14:08:51;19.50;;;13.40;;
3567;SDS011;1798;48.486;9.232;2023-09-12T14:11:18;25.93;;;13.27;;
3567;SDS011;1798;48.486;9.232;2023-09-12T14:13:44;20.03;;;13.27;;
3567;SDS011;1798;48.486;9.232;2023-09-12T14:16:12;26.07;;;13.97;;
3567;SDS011;1798;48.486;9.232;2023-09-12T14:18:39;22.47;;;13.87;;
3567;SDS011;1798;48.486;9.232;2023-09-12T14:21:06;27.90;;;13.90;;
3567;SDS011;1798;48.486;9.232;2023-09-12T14:23:33;22.77;;;14.80;;
3567;SDS011;1798;48.486;9.232;2023-09-12T14:25:59;23.03;;;15.20;;
3567;SDS011;1798;48.486;9.232;2023-09-12T14:28:26;25.30;;;15.13;;
3567;SDS011;1798;48.486;9.232;2023-09-12T14:30:53;40.50;;;15.53;;
3567;SDS011;1798;48.486;9.232;2023-09-12T14:33:22;23.63;;;14.70;;
3567;SDS011;1798;48.486;9.232;2023-09-12T14:35:48;28.10;;;15.90;;
3567;SDS011;1798;48.486;9.232;2023-09-12T14:38:15;33.57;;;13.97;;
3567;SDS011;1798;48.486;9.232;2023-09-12T14:40:42;31.67;;;15.70;;
3567;SDS011;1798;48.486;9.232;2023-09-12T14:43:09;25.30;;;13.90;;
3567;SDS011;1798;48.486;9.232;2023-09-12T14:45:35;40.63;;;14.47;;
3567;SDS011;1798;48.486;9.232;2023-09-12T14:48:02;30.93;;;12.80;;
3567;SDS011;1798;48.486;9.232;2023-09-12T14:50:31;27.30;;;15.83;;
3567;SDS011;1798;48.486;9.232;2023-09-12T14:52:58;32.33;;;15.70;;
3567;SDS011;1798;48.486;9.232;2023-09-12T14:55:25;27.13;;;12.23;;
3567;SDS011;1798;48.486;9.232;2023-09-12T14:57:51;47.60;;;21.93;;